sensor_id;sensor_type;location;lat;lon;timestamp;pressure;altitude;pressure_sealevel;temperature;humidity
42859;BME280;28505;56.970;40.998;2022-12-18T00:00:07;100057.94;;;-5.49;100.00
42859;BME280;28505;56.970;40.998;2022-12-18T00:05:37;100071.19;;;-5.36;100.00
42859;BME280;28505;56.970;40.998;2022-12-18T00:11:09;100039.91;;;-5.52;100.00
42859;BME280;28505;56.970;40.998;2022-12-18T00:16:32;100063.06;;;-5.41;100.00
42859;BME280;28505;56.970;40.998;2022-12-18T00:22:00;100047.91;;;-5.39;100.00
42859;BME280;28505;56.970;40.998;2022-12-18T00:27:22;100047.13;;;-5.39;100.00
42859;BME280;28505;56.970;40.998;2022-12-18T00:32:44;100024.66;;;-5.42;100.00
42859;BME280;28505;56.970;40.998;2022-12-18T00:38:06;100009.25;;;-5.45;100.00
42859;BME280;28505;56.970;40.998;2022-12-18T00:43:29;100007.50;;;-5.38;100.00
42859;BME280;28505;56.970;40.998;2022-12-18T00:48:51;99990.28;;;-5.41;100.00
42859;BME280;28505;56.970;40.998;2022-12-18T00:54:13;99979.41;;;-5.37;100.00
42859;BME280;28505;56.970;40.998;2022-12-18T00:59:35;99929.16;;;-5.56;100.00
42859;BME280;28505;56.970;40.998;2022-12-18T01:04:57;99920.53;;;-5.43;100.00
42859;BME280;28505;56.970;40.998;2022-12-18T01:10:20;99874.06;;;-5.49;100.00
42859;BME280;28505;56.970;40.998;2022-12-18T01:15:51;99844.53;;;-5.51;100.00
42859;BME280;28505;56.970;40.998;2022-12-18T01:21:15;99838.25;;;-5.50;100.00
42859;BME280;28505;56.970;40.998;2022-12-18T01:26:38;99833.63;;;-5.48;100.00
42859;BME280;28505;56.970;40.998;2022-12-18T01:32:02;99809.53;;;-5.58;100.00
42859;BME280;28505;56.970;40.998;2022-12-18T01:37:25;99818.63;;;-5.54;100.00
42859;BME280;28505;56.970;40.998;2022-12-18T01:42:53;99822.50;;;-5.50;100.00
42859;BME280;28505;56.970;40.998;2022-12-18T01:48:15;99808.56;;;-5.51;100.00
42859;BME280;28505;56.970;40.998;2022-12-18T01:53:39;99788.78;;;-5.47;100.00
42859;BME280;28505;56.970;40.998;2022-12-18T01:59:04;99787.38;;;-5.49;100.00
42859;BME280;28505;56.970;40.998;2022-12-18T02:04:28;99763.22;;;-5.59;100.00
42859;BME280;28505;56.970;40.998;2022-12-18T02:10:00;99772.00;;;-5.52;100.00
42859;BME280;28505;56.970;40.998;2022-12-18T02:26:59;99805.50;;;-5.54;100.00
42859;BME280;28505;56.970;40.998;2022-12-18T02:32:28;99790.56;;;-5.54;100.00
42859;BME280;28505;56.970;40.998;2022-12-18T02:37:53;99773.56;;;-5.58;100.00
42859;BME280;28505;56.970;40.998;2022-12-18T02:43:16;99735.53;;;-5.69;100.00
42859;BME280;28505;56.970;40.998;2022-12-18T02:48:38;99733.72;;;-5.68;100.00
42859;BME280;28505;56.970;40.998;2022-12-18T02:54:34;99714.53;;;-5.69;100.00
42859;BME280;28505;56.970;40.998;2022-12-18T03:00:33;99711.25;;;-5.71;100.00
42859;BME280;28505;56.970;40.998;2022-12-18T03:06:02;99697.50;;;-5.73;100.00
42859;BME280;28505;56.970;40.998;2022-12-18T03:11:28;99669.84;;;-5.75;100.00
42859;BME280;28505;56.970;40.998;2022-12-18T03:17:15;99666.00;;;-5.73;100.00
42859;BME280;28505;56.970;40.998;2022-12-18T03:22:41;99644.16;;;-5.80;100.00
42859;BME280;28505;56.970;40.998;2022-12-18T03:28:12;99632.41;;;-5.91;100.00
42859;BME280;28505;56.970;40.998;2022-12-18T03:33:43;99626.94;;;-5.89;100.00
42859;BME280;28505;56.970;40.998;2022-12-18T03:39:09;99584.75;;;-6.01;100.00
42859;BME280;28505;56.970;40.998;2022-12-18T03:50:16;99569.41;;;-5.97;100.00
42859;BME280;28505;56.970;40.998;2022-12-18T03:55:44;99536.66;;;-6.08;100.00
42859;BME280;28505;56.970;40.998;2022-12-18T04:01:08;99539.88;;;-6.06;100.00
42859;BME280;28505;56.970;40.998;2022-12-18T04:06:34;99567.78;;;-5.92;100.00
42859;BME280;28505;56.970;40.998;2022-12-18T04:11:58;99536.06;;;-6.03;100.00
42859;BME280;28505;56.970;40.998;2022-12-18T04:17:21;99548.81;;;-5.94;100.00
42859;BME280;28505;56.970;40.998;2022-12-18T04:22:43;99574.44;;;-5.89;100.00
42859;BME280;28505;56.970;40.998;2022-12-18T04:28:07;99561.53;;;-5.97;100.00
42859;BME280;28505;56.970;40.998;2022-12-18T04:33:32;99552.66;;;-5.96;100.00
42859;BME280;28505;56.970;40.998;2022-12-18T04:38:55;99553.44;;;-5.96;100.00
42859;BME280;28505;56.970;40.998;2022-12-18T04:44:18;99565.38;;;-5.93;100.00
42859;BME280;28505;56.970;40.998;2022-12-18T04:49:42;99560.53;;;-5.96;100.00
42859;BME280;28505;56.970;40.998;2022-12-18T04:55:04;99544.34;;;-6.00;100.00
42859;BME280;28505;56.970;40.998;2022-12-18T05:00:27;99531.44;;;-6.01;100.00
42859;BME280;28505;56.970;40.998;2022-12-18T05:05:50;99518.31;;;-6.08;100.00
42859;BME280;28505;56.970;40.998;2022-12-18T05:11:14;99528.19;;;-6.03;100.00
42859;BME280;28505;56.970;40.998;2022-12-18T05:16:39;99509.00;;;-6.10;100.00
42859;BME280;28505;56.970;40.998;2022-12-18T05:22:01;99508.38;;;-6.13;100.00
42859;BME280;28505;56.970;40.998;2022-12-18T05:27:48;99515.03;;;-6.17;100.00
42859;BME280;28505;56.970;40.998;2022-12-18T05:33:18;99500.66;;;-6.27;100.00
42859;BME280;28505;56.970;40.998;2022-12-18T05:38:57;99539.09;;;-6.06;100.00
42859;BME280;28505;56.970;40.998;2022-12-18T05:44:19;99517.78;;;-6.25;100.00
42859;BME280;28505;56.970;40.998;2022-12-18T05:49:41;99540.28;;;-6.09;100.00
42859;BME280;28505;56.970;40.998;2022-12-18T05:55:05;99522.88;;;-6.23;100.00
42859;BME280;28505;56.970;40.998;2022-12-18T06:00:28;99521.22;;;-6.31;100.00
42859;BME280;28505;56.970;40.998;2022-12-18T06:05:51;99534.13;;;-6.29;100.00
42859;BME280;28505;56.970;40.998;2022-12-18T06:11:18;99525.47;;;-6.30;100.00
42859;BME280;28505;56.970;40.998;2022-12-18T06:16:41;99544.19;;;-6.33;100.00
42859;BME280;28505;56.970;40.998;2022-12-18T06:22:03;99572.34;;;-6.14;100.00
42859;BME280;28505;56.970;40.998;2022-12-18T06:27:25;99586.28;;;-6.13;100.00
42859;BME280;28505;56.970;40.998;2022-12-18T06:32:48;99567.00;;;-6.33;100.00
42859;BME280;28505;56.970;40.998;2022-12-18T06:38:16;99564.44;;;-6.20;100.00
42859;BME280;28505;56.970;40.998;2022-12-18T06:43:38;99550.28;;;-6.26;100.00
42859;BME280;28505;56.970;40.998;2022-12-18T06:49:01;99563.78;;;-6.29;100.00
42859;BME280;28505;56.970;40.998;2022-12-18T06:54:23;99564.41;;;-6.27;100.00
42859;BME280;28505;56.970;40.998;2022-12-18T06:59:44;99560.81;;;-6.19;100.00
42859;BME280;28505;56.970;40.998;2022-12-18T07:05:07;99565.25;;;-6.20;100.00
42859;BME280;28505;56.970;40.998;2022-12-18T07:10:31;99547.63;;;-6.32;100.00
42859;BME280;28505;56.970;40.998;2022-12-18T07:15:53;99559.97;;;-6.26;100.00
42859;BME280;28505;56.970;40.998;2022-12-18T07:27:16;99544.19;;;-6.33;100.00
42859;BME280;28505;56.970;40.998;2022-12-18T07:32:41;99541.75;;;-6.34;100.00
42859;BME280;28505;56.970;40.998;2022-12-18T07:38:06;99539.38;;;-6.29;100.00
42859;BME280;28505;56.970;40.998;2022-12-18T07:43:29;99572.97;;;-6.12;100.00
42859;BME280;28505;56.970;40.998;2022-12-18T07:48:57;99557.16;;;-6.25;100.00
42859;BME280;28505;56.970;40.998;2022-12-18T07:54:19;99583.88;;;-6.15;100.00
42859;BME280;28505;56.970;40.998;2022-12-18T07:59:44;99546.69;;;-6.18;100.00
42859;BME280;28505;56.970;40.998;2022-12-18T08:05:06;99548.50;;;-6.19;100.00
42859;BME280;28505;56.970;40.998;2022-12-18T08:10:28;99577.03;;;-6.02;100.00
42859;BME280;28505;56.970;40.998;2022-12-18T08:15:58;99558.44;;;-6.14;100.00
42859;BME280;28505;56.970;40.998;2022-12-18T08:21:29;99567.97;;;-6.00;100.00
42859;BME280;28505;56.970;40.998;2022-12-18T08:27:00;99558.25;;;-6.06;100.00
42859;BME280;28505;56.970;40.998;2022-12-18T08:32:41;99584.94;;;-5.89;100.00
42859;BME280;28505;56.970;40.998;2022-12-18T08:38:03;99606.38;;;-5.79;100.00
42859;BME280;28505;56.970;40.998;2022-12-18T08:43:26;99582.16;;;-5.81;100.00
42859;BME280;28505;56.970;40.998;2022-12-18T08:49:08;99599.97;;;-5.70;100.00
42859;BME280;28505;56.970;40.998;2022-12-18T08:54:30;99604.66;;;-5.65;100.00
42859;BME280;28505;56.970;40.998;2022-12-18T08:59:52;99610.13;;;-5.60;100.00
42859;BME280;28505;56.970;40.998;2022-12-18T09:05:14;99621.25;;;-5.51;100.00
42859;BME280;28505;56.970;40.998;2022-12-18T09:10:42;99624.91;;;-5.52;100.00
42859;BME280;28505;56.970;40.998;2022-12-18T09:16:05;99636.63;;;-5.48;100.00
42859;BME280;28505;56.970;40.998;2022-12-18T09:21:37;99651.19;;;-5.46;100.00
42859;BME280;28505;56.970;40.998;2022-12-18T09:27:18;99628.94;;;-5.50;100.00
42859;BME280;28505;56.970;40.998;2022-12-18T09:32:40;99652.03;;;-5.32;100.00
42859;BME280;28505;56.970;40.998;2022-12-18T09:38:04;99639.31;;;-5.35;100.00
42859;BME280;28505;56.970;40.998;2022-12-18T09:43:54;99665.81;;;-5.23;100.00
42859;BME280;28505;56.970;40.998;2022-12-18T09:49:19;99658.09;;;-5.31;100.00
42859;BME280;28505;56.970;40.998;2022-12-18T09:54:51;99659.31;;;-5.34;100.00
42859;BME280;28505;56.970;40.998;2022-12-18T10:00:19;99675.91;;;-5.27;100.00
42859;BME280;28505;56.970;40.998;2022-12-18T10:17:17;99675.50;;;-5.24;100.00
42859;BME280;28505;56.970;40.998;2022-12-18T10:28:24;99677.53;;;-5.26;100.00
42859;BME280;28505;56.970;40.998;2022-12-18T10:33:47;99685.00;;;-5.29;100.00
42859;BME280;28505;56.970;40.998;2022-12-18T10:39:21;99704.38;;;-5.30;100.00
42859;BME280;28505;56.970;40.998;2022-12-18T10:45:01;99699.72;;;-5.35;100.00
42859;BME280;28505;56.970;40.998;2022-12-18T10:50:26;99722.81;;;-5.24;100.00
42859;BME280;28505;56.970;40.998;2022-12-18T10:56:09;99727.22;;;-5.31;100.00
42859;BME280;28505;56.970;40.998;2022-12-18T11:01:57;99737.94;;;-5.32;100.00
42859;BME280;28505;56.970;40.998;2022-12-18T11:07:19;99751.03;;;-5.39;100.00
42859;BME280;28505;56.970;40.998;2022-12-18T11:12:41;99763.78;;;-5.36;100.00
42859;BME280;28505;56.970;40.998;2022-12-18T11:18:04;99777.50;;;-5.41;100.00
42859;BME280;28505;56.970;40.998;2022-12-18T11:23:27;99776.06;;;-5.43;100.00
42859;BME280;28505;56.970;40.998;2022-12-18T11:28:52;99777.66;;;-5.49;100.00
42859;BME280;28505;56.970;40.998;2022-12-18T11:34:24;99778.31;;;-5.40;100.00
42859;BME280;28505;56.970;40.998;2022-12-18T11:39:58;99782.13;;;-5.49;100.00
42859;BME280;28505;56.970;40.998;2022-12-18T11:46:04;99776.81;;;-5.56;100.00
42859;BME280;28505;56.970;40.998;2022-12-18T11:51:37;99791.09;;;-5.65;100.00
42859;BME280;28505;56.970;40.998;2022-12-18T12:25:46;99853.81;;;-6.05;100.00
42859;BME280;28505;56.970;40.998;2022-12-18T12:37:07;99874.66;;;-5.97;100.00
42859;BME280;28505;56.970;40.998;2022-12-18T12:42:47;99843.38;;;-6.20;100.00
42859;BME280;28505;56.970;40.998;2022-12-18T12:48:55;99867.63;;;-6.18;100.00
42859;BME280;28505;56.970;40.998;2022-12-18T12:54:24;99891.91;;;-6.09;100.00
42859;BME280;28505;56.970;40.998;2022-12-18T13:00:16;99907.41;;;-6.14;100.00
42859;BME280;28505;56.970;40.998;2022-12-18T13:05:56;99895.19;;;-6.22;100.00
42859;BME280;28505;56.970;40.998;2022-12-18T13:11:31;99909.41;;;-6.16;100.00
42859;BME280;28505;56.970;40.998;2022-12-18T13:17:32;99882.50;;;-6.40;100.00
42859;BME280;28505;56.970;40.998;2022-12-18T13:22:58;99884.69;;;-6.43;100.00
42859;BME280;28505;56.970;40.998;2022-12-18T13:34:20;99934.31;;;-6.27;100.00
42859;BME280;28505;56.970;40.998;2022-12-18T13:39:49;99938.84;;;-6.36;100.00
42859;BME280;28505;56.970;40.998;2022-12-18T13:45:47;99958.28;;;-6.30;100.00
42859;BME280;28505;56.970;40.998;2022-12-18T13:51:17;99967.78;;;-6.29;100.00
42859;BME280;28505;56.970;40.998;2022-12-18T13:56:46;99983.72;;;-6.30;100.00
42859;BME280;28505;56.970;40.998;2022-12-18T14:02:15;100000.63;;;-6.33;100.00
42859;BME280;28505;56.970;40.998;2022-12-18T14:07:38;100014.75;;;-6.34;100.00
42859;BME280;28505;56.970;40.998;2022-12-18T14:13:08;100020.81;;;-6.33;100.00
42859;BME280;28505;56.970;40.998;2022-12-18T14:19:01;100023.94;;;-6.38;100.00
42859;BME280;28505;56.970;40.998;2022-12-18T14:24:35;100030.56;;;-6.42;100.00
42859;BME280;28505;56.970;40.998;2022-12-18T14:29:57;100024.41;;;-6.49;100.00
42859;BME280;28505;56.970;40.998;2022-12-18T14:35:19;100048.41;;;-6.38;100.00
42859;BME280;28505;56.970;40.998;2022-12-18T14:40:44;100044.84;;;-6.45;100.00
42859;BME280;28505;56.970;40.998;2022-12-18T14:46:29;100050.28;;;-6.46;100.00
42859;BME280;28505;56.970;40.998;2022-12-18T14:51:57;100040.31;;;-6.51;100.00
42859;BME280;28505;56.970;40.998;2022-12-18T14:57:24;100041.59;;;-6.62;100.00
42859;BME280;28505;56.970;40.998;2022-12-18T15:02:55;100065.38;;;-6.63;100.00
42859;BME280;28505;56.970;40.998;2022-12-18T15:08:35;100072.03;;;-6.61;100.00
42859;BME280;28505;56.970;40.998;2022-12-18T15:13:57;100075.50;;;-6.60;100.00
42859;BME280;28505;56.970;40.998;2022-12-18T15:19:22;100075.41;;;-6.67;100.00
42859;BME280;28505;56.970;40.998;2022-12-18T15:24:46;100089.13;;;-6.65;100.00
42859;BME280;28505;56.970;40.998;2022-12-18T15:35:30;100080.34;;;-6.72;100.00
42859;BME280;28505;56.970;40.998;2022-12-18T15:40:52;100092.47;;;-6.71;100.00
42859;BME280;28505;56.970;40.998;2022-12-18T15:46:20;100116.34;;;-6.66;100.00
42859;BME280;28505;56.970;40.998;2022-12-18T15:51:42;100122.31;;;-6.72;100.00
42859;BME280;28505;56.970;40.998;2022-12-18T15:57:10;100119.03;;;-6.74;100.00
42859;BME280;28505;56.970;40.998;2022-12-18T16:02:44;100135.09;;;-6.77;100.00
42859;BME280;28505;56.970;40.998;2022-12-18T16:08:07;100129.94;;;-6.85;100.00
42859;BME280;28505;56.970;40.998;2022-12-18T16:13:32;100138.09;;;-6.80;100.00
42859;BME280;28505;56.970;40.998;2022-12-18T16:18:54;100154.00;;;-6.81;100.00
42859;BME280;28505;56.970;40.998;2022-12-18T16:24:22;100164.56;;;-6.90;100.00
42859;BME280;28505;56.970;40.998;2022-12-18T16:29:44;100186.34;;;-6.89;100.00
42859;BME280;28505;56.970;40.998;2022-12-18T16:35:07;100187.03;;;-6.95;100.00
42859;BME280;28505;56.970;40.998;2022-12-18T16:40:31;100202.78;;;-7.03;100.00
42859;BME280;28505;56.970;40.998;2022-12-18T16:45:53;100201.22;;;-7.13;100.00
42859;BME280;28505;56.970;40.998;2022-12-18T16:51:18;100231.66;;;-7.12;100.00
42859;BME280;28505;56.970;40.998;2022-12-18T16:56:40;100240.53;;;-7.21;100.00
42859;BME280;28505;56.970;40.998;2022-12-18T17:02:04;100252.31;;;-7.17;100.00
42859;BME280;28505;56.970;40.998;2022-12-18T17:07:28;100249.25;;;-7.28;100.00
42859;BME280;28505;56.970;40.998;2022-12-18T17:12:50;100253.38;;;-7.34;100.00
42859;BME280;28505;56.970;40.998;2022-12-18T17:18:12;100265.94;;;-7.30;100.00
42859;BME280;28505;56.970;40.998;2022-12-18T17:23:34;100273.69;;;-7.44;100.00
42859;BME280;28505;56.970;40.998;2022-12-18T17:28:58;100294.81;;;-7.46;100.00
42859;BME280;28505;56.970;40.998;2022-12-18T17:34:23;100298.13;;;-7.52;100.00
42859;BME280;28505;56.970;40.998;2022-12-18T17:39:45;100305.81;;;-7.67;100.00
42859;BME280;28505;56.970;40.998;2022-12-18T17:45:08;100322.19;;;-7.65;100.00
42859;BME280;28505;56.970;40.998;2022-12-18T17:50:32;100321.53;;;-7.83;100.00
42859;BME280;28505;56.970;40.998;2022-12-18T17:55:55;100329.56;;;-7.85;100.00
42859;BME280;28505;56.970;40.998;2022-12-18T18:01:21;100347.38;;;-7.88;100.00
42859;BME280;28505;56.970;40.998;2022-12-18T18:06:44;100338.56;;;-8.04;100.00
42859;BME280;28505;56.970;40.998;2022-12-18T18:12:06;100357.19;;;-7.98;100.00
42859;BME280;28505;56.970;40.998;2022-12-18T18:17:47;100366.38;;;-7.94;100.00
42859;BME280;28505;56.970;40.998;2022-12-18T18:23:15;100354.38;;;-8.21;100.00
42859;BME280;28505;56.970;40.998;2022-12-18T18:28:38;100348.34;;;-8.38;100.00
42859;BME280;28505;56.970;40.998;2022-12-18T18:34:06;100382.69;;;-8.17;100.00
42859;BME280;28505;56.970;40.998;2022-12-18T18:39:35;100392.63;;;-8.29;100.00
42859;BME280;28505;56.970;40.998;2022-12-18T18:45:00;100404.22;;;-8.48;100.00
42859;BME280;28505;56.970;40.998;2022-12-18T18:50:30;100421.56;;;-8.46;100.00
42859;BME280;28505;56.970;40.998;2022-12-18T18:56:00;100417.09;;;-8.54;100.00
42859;BME280;28505;56.970;40.998;2022-12-18T19:01:47;100412.63;;;-8.70;100.00
42859;BME280;28505;56.970;40.998;2022-12-18T19:07:18;100419.13;;;-8.82;100.00
42859;BME280;28505;56.970;40.998;2022-12-18T19:12:52;100417.88;;;-8.96;100.00
42859;BME280;28505;56.970;40.998;2022-12-18T19:18:39;100443.19;;;-8.97;100.00
42859;BME280;28505;56.970;40.998;2022-12-18T19:24:09;100468.66;;;-8.99;100.00
42859;BME280;28505;56.970;40.998;2022-12-18T19:29:35;100477.84;;;-9.12;100.00
42859;BME280;28505;56.970;40.998;2022-12-18T19:35:04;100483.16;;;-9.22;100.00
42859;BME280;28505;56.970;40.998;2022-12-18T19:40:30;100487.44;;;-9.21;100.00
42859;BME280;28505;56.970;40.998;2022-12-18T19:45:57;100491.63;;;-9.28;100.00
42859;BME280;28505;56.970;40.998;2022-12-18T19:51:23;100499.53;;;-9.38;100.00
42859;BME280;28505;56.970;40.998;2022-12-18T19:56:46;100503.56;;;-9.44;100.00
42859;BME280;28505;56.970;40.998;2022-12-18T20:02:15;100506.72;;;-9.58;100.00
42859;BME280;28505;56.970;40.998;2022-12-18T20:07:37;100515.88;;;-9.54;100.00
42859;BME280;28505;56.970;40.998;2022-12-18T20:13:10;100540.03;;;-9.52;100.00
42859;BME280;28505;56.970;40.998;2022-12-18T20:18:36;100534.88;;;-9.61;100.00
42859;BME280;28505;56.970;40.998;2022-12-18T20:24:04;100551.84;;;-9.48;100.00
42859;BME280;28505;56.970;40.998;2022-12-18T20:29:28;100541.22;;;-9.64;100.00
42859;BME280;28505;56.970;40.998;2022-12-18T20:34:52;100526.06;;;-9.78;100.00
42859;BME280;28505;56.970;40.998;2022-12-18T20:40:22;100540.03;;;-9.70;100.00
42859;BME280;28505;56.970;40.998;2022-12-18T20:45:50;100575.16;;;-9.64;100.00
42859;BME280;28505;56.970;40.998;2022-12-18T20:51:27;100567.00;;;-9.79;100.00
42859;BME280;28505;56.970;40.998;2022-12-18T20:56:51;100555.50;;;-9.86;100.00
42859;BME280;28505;56.970;40.998;2022-12-18T21:02:18;100602.94;;;-9.73;100.00
42859;BME280;28505;56.970;40.998;2022-12-18T21:07:55;100561.22;;;-10.00;100.00
42859;BME280;28505;56.970;40.998;2022-12-18T21:13:20;100578.59;;;-9.91;100.00
42859;BME280;28505;56.970;40.998;2022-12-18T21:18:44;100581.34;;;-9.93;100.00
42859;BME280;28505;56.970;40.998;2022-12-18T21:24:21;100602.59;;;-9.87;100.00
42859;BME280;28505;56.970;40.998;2022-12-18T21:29:52;100601.44;;;-10.03;100.00
42859;BME280;28505;56.970;40.998;2022-12-18T21:35:16;100606.72;;;-10.22;100.00
42859;BME280;28505;56.970;40.998;2022-12-18T21:40:41;100617.38;;;-10.43;100.00
42859;BME280;28505;56.970;40.998;2022-12-18T21:46:05;100617.56;;;-10.64;100.00
42859;BME280;28505;56.970;40.998;2022-12-18T21:51:27;100618.13;;;-10.70;100.00
42859;BME280;28505;56.970;40.998;2022-12-18T21:56:55;100605.78;;;-10.78;100.00
42859;BME280;28505;56.970;40.998;2022-12-18T22:02:20;100623.19;;;-10.69;100.00
42859;BME280;28505;56.970;40.998;2022-12-18T22:07:43;100601.69;;;-10.80;100.00
42859;BME280;28505;56.970;40.998;2022-12-18T22:13:06;100627.19;;;-10.74;100.00
42859;BME280;28505;56.970;40.998;2022-12-18T22:18:28;100624.84;;;-10.97;100.00
42859;BME280;28505;56.970;40.998;2022-12-18T22:24:01;100639.94;;;-10.91;100.00
42859;BME280;28505;56.970;40.998;2022-12-18T22:29:24;100641.72;;;-11.01;100.00
42859;BME280;28505;56.970;40.998;2022-12-18T22:35:05;100642.81;;;-11.13;100.00
42859;BME280;28505;56.970;40.998;2022-12-18T22:40:36;100638.53;;;-11.34;100.00
42859;BME280;28505;56.970;40.998;2022-12-18T22:45:58;100655.63;;;-11.50;100.00
42859;BME280;28505;56.970;40.998;2022-12-18T22:51:25;100662.13;;;-11.75;100.00
42859;BME280;28505;56.970;40.998;2022-12-18T22:56:50;100650.41;;;-12.00;100.00
42859;BME280;28505;56.970;40.998;2022-12-18T23:02:11;100677.22;;;-12.00;100.00
42859;BME280;28505;56.970;40.998;2022-12-18T23:07:34;100685.25;;;-12.13;100.00
42859;BME280;28505;56.970;40.998;2022-12-18T23:12:56;100686.59;;;-12.18;100.00
42859;BME280;28505;56.970;40.998;2022-12-18T23:18:18;100677.72;;;-12.37;100.00
42859;BME280;28505;56.970;40.998;2022-12-18T23:23:42;100687.22;;;-12.47;100.00
42859;BME280;28505;56.970;40.998;2022-12-18T23:29:04;100694.25;;;-12.59;100.00
42859;BME280;28505;56.970;40.998;2022-12-18T23:34:26;100700.06;;;-12.66;100.00
42859;BME280;28505;56.970;40.998;2022-12-18T23:39:48;100681.00;;;-12.77;100.00
42859;BME280;28505;56.970;40.998;2022-12-18T23:45:10;100708.34;;;-12.73;100.00
42859;BME280;28505;56.970;40.998;2022-12-18T23:50:37;100715.47;;;-12.75;100.00
42859;BME280;28505;56.970;40.998;2022-12-18T23:55:59;100714.03;;;-12.79;100.00
